sensor_id;sensor_type;location;lat;lon;timestamp;P1;durP1;ratioP1;P2;durP2;ratioP2
14074;SDS011;12831;52.392;13.066;2023-07-31T00:02:12;4.80;;;2.08;;
14074;SDS011;12831;52.392;13.066;2023-07-31T00:04:38;7.53;;;2.50;;
14074;SDS011;12831;52.392;13.066;2023-07-31T00:07:04;4.50;;;1.67;;
14074;SDS011;12831;52.392;13.066;2023-07-31T00:09:34;4.43;;;1.88;;
14074;SDS011;12831;52.392;13.066;2023-07-31T00:12:00;3.15;;;1.70;;
14074;SDS011;12831;52.392;13.066;2023-07-31T00:14:26;5.60;;;1.98;;
14074;SDS011;12831;52.392;13.066;2023-07-31T00:16:52;7.57;;;2.33;;
14074;SDS011;12831;52.392;13.066;2023-07-31T00:19:18;4.47;;;1.85;;
14074;SDS011;12831;52.392;13.066;2023-07-31T00:21:44;3.72;;;2.00;;
14074;SDS011;12831;52.392;13.066;2023-07-31T00:24:10;4.22;;;1.98;;
14074;SDS011;12831;52.392;13.066;2023-07-31T00:26:36;7.72;;;2.35;;
14074;SDS011;12831;52.392;13.066;2023-07-31T00:29:02;6.30;;;2.42;;
14074;SDS011;12831;52.392;13.066;2023-07-31T00:31:28;4.85;;;2.17;;
14074;SDS011;12831;52.392;13.066;2023-07-31T00:33:53;7.50;;;2.55;;
14074;SDS011;12831;52.392;13.066;2023-07-31T00:36:19;5.40;;;2.78;;
14074;SDS011;12831;52.392;13.066;2023-07-31T00:38:45;10.38;;;2.03;;
14074;SDS011;12831;52.392;13.066;2023-07-31T00:41:11;3.65;;;1.65;;
14074;SDS011;12831;52.392;13.066;2023-07-31T00:43:37;6.68;;;1.80;;
14074;SDS011;12831;52.392;13.066;2023-07-31T00:46:03;4.25;;;2.13;;
14074;SDS011;12831;52.392;13.066;2023-07-31T00:48:29;4.07;;;1.63;;
14074;SDS011;12831;52.392;13.066;2023-07-31T00:50:55;3.90;;;1.90;;
14074;SDS011;12831;52.392;13.066;2023-07-31T00:53:21;3.67;;;1.83;;
14074;SDS011;12831;52.392;13.066;2023-07-31T00:55:47;4.88;;;1.77;;
14074;SDS011;12831;52.392;13.066;2023-07-31T00:58:13;5.65;;;1.85;;
14074;SDS011;12831;52.392;13.066;2023-07-31T01:00:39;5.32;;;1.80;;
14074;SDS011;12831;52.392;13.066;2023-07-31T01:03:05;7.38;;;2.53;;
14074;SDS011;12831;52.392;13.066;2023-07-31T01:08:22;5.18;;;1.55;;
14074;SDS011;12831;52.392;13.066;2023-07-31T01:10:55;5.28;;;1.75;;
14074;SDS011;12831;52.392;13.066;2023-07-31T01:13:21;3.35;;;1.48;;
14074;SDS011;12831;52.392;13.066;2023-07-31T01:15:47;3.63;;;1.60;;
14074;SDS011;12831;52.392;13.066;2023-07-31T01:18:13;6.93;;;2.25;;
14074;SDS011;12831;52.392;13.066;2023-07-31T01:20:39;3.75;;;1.83;;
14074;SDS011;12831;52.392;13.066;2023-07-31T01:23:10;3.58;;;2.20;;
14074;SDS011;12831;52.392;13.066;2023-07-31T01:28:10;6.53;;;2.08;;
14074;SDS011;12831;52.392;13.066;2023-07-31T01:30:41;6.75;;;1.98;;
14074;SDS011;12831;52.392;13.066;2023-07-31T01:33:08;3.20;;;1.83;;
14074;SDS011;12831;52.392;13.066;2023-07-31T01:35:34;3.70;;;2.05;;
14074;SDS011;12831;52.392;13.066;2023-07-31T01:38:01;8.43;;;2.08;;
14074;SDS011;12831;52.392;13.066;2023-07-31T01:40:27;4.30;;;1.90;;
14074;SDS011;12831;52.392;13.066;2023-07-31T01:42:52;4.13;;;2.05;;
14074;SDS011;12831;52.392;13.066;2023-07-31T01:45:18;5.82;;;1.98;;
14074;SDS011;12831;52.392;13.066;2023-07-31T01:47:44;10.00;;;2.20;;
14074;SDS011;12831;52.392;13.066;2023-07-31T01:50:11;9.00;;;2.80;;
14074;SDS011;12831;52.392;13.066;2023-07-31T01:52:37;5.65;;;2.35;;
14074;SDS011;12831;52.392;13.066;2023-07-31T01:55:05;4.90;;;2.20;;
14074;SDS011;12831;52.392;13.066;2023-07-31T01:57:30;10.65;;;3.13;;
14074;SDS011;12831;52.392;13.066;2023-07-31T01:59:56;5.65;;;2.92;;
14074;SDS011;12831;52.392;13.066;2023-07-31T02:02:22;5.40;;;2.30;;
14074;SDS011;12831;52.392;13.066;2023-07-31T02:04:48;5.45;;;2.22;;
14074;SDS011;12831;52.392;13.066;2023-07-31T02:07:14;4.93;;;2.40;;
14074;SDS011;12831;52.392;13.066;2023-07-31T02:09:40;3.95;;;2.47;;
14074;SDS011;12831;52.392;13.066;2023-07-31T02:12:06;4.53;;;2.45;;
14074;SDS011;12831;52.392;13.066;2023-07-31T02:14:34;5.82;;;2.90;;
14074;SDS011;12831;52.392;13.066;2023-07-31T02:17:00;6.15;;;2.58;;
14074;SDS011;12831;52.392;13.066;2023-07-31T02:19:26;4.32;;;2.30;;
14074;SDS011;12831;52.392;13.066;2023-07-31T02:21:52;9.55;;;2.50;;
14074;SDS011;12831;52.392;13.066;2023-07-31T02:24:17;5.95;;;2.38;;
14074;SDS011;12831;52.392;13.066;2023-07-31T02:26:43;5.22;;;2.55;;
14074;SDS011;12831;52.392;13.066;2023-07-31T02:29:09;5.88;;;2.53;;
14074;SDS011;12831;52.392;13.066;2023-07-31T02:31:35;6.63;;;2.28;;
14074;SDS011;12831;52.392;13.066;2023-07-31T02:34:01;3.72;;;2.22;;
14074;SDS011;12831;52.392;13.066;2023-07-31T02:36:27;6.65;;;2.75;;
14074;SDS011;12831;52.392;13.066;2023-07-31T02:38:52;5.45;;;3.15;;
14074;SDS011;12831;52.392;13.066;2023-07-31T02:41:18;6.68;;;3.42;;
14074;SDS011;12831;52.392;13.066;2023-07-31T02:43:44;7.07;;;3.55;;
14074;SDS011;12831;52.392;13.066;2023-07-31T02:46:10;8.70;;;4.22;;
14074;SDS011;12831;52.392;13.066;2023-07-31T02:48:36;6.10;;;2.80;;
14074;SDS011;12831;52.392;13.066;2023-07-31T02:51:02;5.88;;;2.35;;
14074;SDS011;12831;52.392;13.066;2023-07-31T02:53:28;6.60;;;3.60;;
14074;SDS011;12831;52.392;13.066;2023-07-31T02:55:53;10.10;;;2.85;;
14074;SDS011;12831;52.392;13.066;2023-07-31T02:58:20;8.38;;;2.90;;
14074;SDS011;12831;52.392;13.066;2023-07-31T03:00:45;6.93;;;2.88;;
14074;SDS011;12831;52.392;13.066;2023-07-31T03:03:11;5.85;;;2.55;;
14074;SDS011;12831;52.392;13.066;2023-07-31T03:05:37;8.02;;;2.90;;
14074;SDS011;12831;52.392;13.066;2023-07-31T03:08:03;6.95;;;2.55;;
14074;SDS011;12831;52.392;13.066;2023-07-31T03:10:29;5.53;;;2.95;;
14074;SDS011;12831;52.392;13.066;2023-07-31T03:12:55;6.00;;;2.22;;
14074;SDS011;12831;52.392;13.066;2023-07-31T03:15:21;6.03;;;2.10;;
14074;SDS011;12831;52.392;13.066;2023-07-31T03:17:47;4.13;;;2.10;;
14074;SDS011;12831;52.392;13.066;2023-07-31T03:20:13;9.10;;;3.03;;
14074;SDS011;12831;52.392;13.066;2023-07-31T03:22:39;4.45;;;2.05;;
14074;SDS011;12831;52.392;13.066;2023-07-31T03:25:05;6.10;;;3.00;;
14074;SDS011;12831;52.392;13.066;2023-07-31T03:27:31;8.90;;;3.15;;
14074;SDS011;12831;52.392;13.066;2023-07-31T03:29:56;9.82;;;3.28;;
14074;SDS011;12831;52.392;13.066;2023-07-31T03:32:22;5.88;;;2.50;;
14074;SDS011;12831;52.392;13.066;2023-07-31T03:34:49;12.68;;;2.95;;
14074;SDS011;12831;52.392;13.066;2023-07-31T03:37:15;9.68;;;3.95;;
14074;SDS011;12831;52.392;13.066;2023-07-31T03:39:40;7.68;;;3.03;;
14074;SDS011;12831;52.392;13.066;2023-07-31T03:42:06;8.95;;;3.53;;
14074;SDS011;12831;52.392;13.066;2023-07-31T03:44:32;7.75;;;3.20;;
14074;SDS011;12831;52.392;13.066;2023-07-31T03:46:58;9.30;;;3.08;;
14074;SDS011;12831;52.392;13.066;2023-07-31T03:49:24;6.50;;;3.25;;
14074;SDS011;12831;52.392;13.066;2023-07-31T03:51:50;8.25;;;4.07;;
14074;SDS011;12831;52.392;13.066;2023-07-31T03:54:16;4.97;;;2.42;;
14074;SDS011;12831;52.392;13.066;2023-07-31T03:56:42;7.07;;;2.72;;
14074;SDS011;12831;52.392;13.066;2023-07-31T03:59:08;7.15;;;3.05;;
14074;SDS011;12831;52.392;13.066;2023-07-31T04:01:34;6.85;;;3.38;;
14074;SDS011;12831;52.392;13.066;2023-07-31T04:04:00;4.60;;;2.95;;
14074;SDS011;12831;52.392;13.066;2023-07-31T04:06:26;5.18;;;2.22;;
14074;SDS011;12831;52.392;13.066;2023-07-31T04:08:52;5.70;;;2.97;;
14074;SDS011;12831;52.392;13.066;2023-07-31T04:11:18;8.07;;;2.72;;
14074;SDS011;12831;52.392;13.066;2023-07-31T04:13:44;7.15;;;3.58;;
14074;SDS011;12831;52.392;13.066;2023-07-31T04:16:09;4.70;;;2.63;;
14074;SDS011;12831;52.392;13.066;2023-07-31T04:18:37;7.70;;;3.63;;
14074;SDS011;12831;52.392;13.066;2023-07-31T04:21:03;11.27;;;3.55;;
14074;SDS011;12831;52.392;13.066;2023-07-31T04:23:28;8.07;;;3.20;;
14074;SDS011;12831;52.392;13.066;2023-07-31T04:25:54;10.32;;;3.78;;
14074;SDS011;12831;52.392;13.066;2023-07-31T04:28:20;10.52;;;5.13;;
14074;SDS011;12831;52.392;13.066;2023-07-31T04:30:46;8.27;;;4.50;;
14074;SDS011;12831;52.392;13.066;2023-07-31T04:33:16;11.48;;;6.40;;
14074;SDS011;12831;52.392;13.066;2023-07-31T04:35:42;6.97;;;3.63;;
14074;SDS011;12831;52.392;13.066;2023-07-31T04:38:13;6.95;;;2.95;;
14074;SDS011;12831;52.392;13.066;2023-07-31T04:40:39;9.82;;;4.07;;
14074;SDS011;12831;52.392;13.066;2023-07-31T04:43:05;7.75;;;2.97;;
14074;SDS011;12831;52.392;13.066;2023-07-31T04:45:31;7.85;;;3.03;;
14074;SDS011;12831;52.392;13.066;2023-07-31T04:47:57;8.57;;;3.95;;
14074;SDS011;12831;52.392;13.066;2023-07-31T04:50:22;8.48;;;3.80;;
14074;SDS011;12831;52.392;13.066;2023-07-31T04:52:48;5.22;;;3.13;;
14074;SDS011;12831;52.392;13.066;2023-07-31T04:55:14;5.75;;;2.95;;
14074;SDS011;12831;52.392;13.066;2023-07-31T04:57:40;6.18;;;2.60;;
14074;SDS011;12831;52.392;13.066;2023-07-31T05:00:06;6.72;;;3.70;;
14074;SDS011;12831;52.392;13.066;2023-07-31T05:02:32;4.80;;;2.25;;
14074;SDS011;12831;52.392;13.066;2023-07-31T05:04:58;11.02;;;4.00;;
14074;SDS011;12831;52.392;13.066;2023-07-31T05:07:24;8.20;;;4.28;;
14074;SDS011;12831;52.392;13.066;2023-07-31T05:09:50;4.97;;;2.63;;
14074;SDS011;12831;52.392;13.066;2023-07-31T05:12:16;5.65;;;2.33;;
14074;SDS011;12831;52.392;13.066;2023-07-31T05:14:41;8.65;;;2.80;;
14074;SDS011;12831;52.392;13.066;2023-07-31T05:17:07;6.97;;;2.63;;
14074;SDS011;12831;52.392;13.066;2023-07-31T05:19:33;8.10;;;2.40;;
14074;SDS011;12831;52.392;13.066;2023-07-31T05:21:59;8.27;;;2.20;;
14074;SDS011;12831;52.392;13.066;2023-07-31T05:24:28;7.30;;;2.63;;
14074;SDS011;12831;52.392;13.066;2023-07-31T05:26:54;8.82;;;2.20;;
14074;SDS011;12831;52.392;13.066;2023-07-31T05:29:20;3.58;;;1.88;;
14074;SDS011;12831;52.392;13.066;2023-07-31T05:31:46;5.55;;;1.90;;
14074;SDS011;12831;52.392;13.066;2023-07-31T05:34:12;10.63;;;2.70;;
14074;SDS011;12831;52.392;13.066;2023-07-31T05:36:38;6.32;;;3.38;;
14074;SDS011;12831;52.392;13.066;2023-07-31T05:39:04;5.55;;;2.58;;
14074;SDS011;12831;52.392;13.066;2023-07-31T05:41:34;5.80;;;2.17;;
14074;SDS011;12831;52.392;13.066;2023-07-31T05:44:00;7.65;;;2.10;;
14074;SDS011;12831;52.392;13.066;2023-07-31T05:46:26;5.07;;;1.88;;
14074;SDS011;12831;52.392;13.066;2023-07-31T05:48:52;4.60;;;2.00;;
14074;SDS011;12831;52.392;13.066;2023-07-31T05:51:18;6.78;;;2.15;;
14074;SDS011;12831;52.392;13.066;2023-07-31T05:53:44;7.82;;;2.60;;
14074;SDS011;12831;52.392;13.066;2023-07-31T05:56:10;5.88;;;1.60;;
14074;SDS011;12831;52.392;13.066;2023-07-31T05:58:36;3.95;;;1.92;;
14074;SDS011;12831;52.392;13.066;2023-07-31T06:01:01;5.10;;;1.83;;
14074;SDS011;12831;52.392;13.066;2023-07-31T06:03:28;5.03;;;2.10;;
14074;SDS011;12831;52.392;13.066;2023-07-31T06:05:54;4.50;;;1.60;;
14074;SDS011;12831;52.392;13.066;2023-07-31T06:08:20;8.07;;;1.90;;
14074;SDS011;12831;52.392;13.066;2023-07-31T06:10:47;3.70;;;1.67;;
14074;SDS011;12831;52.392;13.066;2023-07-31T06:13:15;7.53;;;2.05;;
14074;SDS011;12831;52.392;13.066;2023-07-31T06:15:41;5.28;;;2.05;;
14074;SDS011;12831;52.392;13.066;2023-07-31T06:18:08;6.40;;;2.17;;
14074;SDS011;12831;52.392;13.066;2023-07-31T06:20:34;6.63;;;2.30;;
14074;SDS011;12831;52.392;13.066;2023-07-31T06:23:00;3.28;;;1.38;;
14074;SDS011;12831;52.392;13.066;2023-07-31T06:25:30;4.38;;;1.92;;
14074;SDS011;12831;52.392;13.066;2023-07-31T06:27:56;5.47;;;2.90;;
14074;SDS011;12831;52.392;13.066;2023-07-31T06:30:22;3.72;;;1.77;;
14074;SDS011;12831;52.392;13.066;2023-07-31T06:32:51;6.32;;;2.53;;
14074;SDS011;12831;52.392;13.066;2023-07-31T06:35:17;6.25;;;2.28;;
14074;SDS011;12831;52.392;13.066;2023-07-31T06:37:49;5.22;;;1.85;;
14074;SDS011;12831;52.392;13.066;2023-07-31T06:40:16;4.35;;;1.65;;
14074;SDS011;12831;52.392;13.066;2023-07-31T06:42:42;8.95;;;1.92;;
14074;SDS011;12831;52.392;13.066;2023-07-31T06:45:11;3.60;;;1.50;;
14074;SDS011;12831;52.392;13.066;2023-07-31T06:47:37;4.03;;;1.50;;
14074;SDS011;12831;52.392;13.066;2023-07-31T06:50:04;8.30;;;2.72;;
14074;SDS011;12831;52.392;13.066;2023-07-31T06:52:30;4.57;;;1.67;;
14074;SDS011;12831;52.392;13.066;2023-07-31T06:57:53;5.32;;;2.15;;
14074;SDS011;12831;52.392;13.066;2023-07-31T07:00:20;3.70;;;1.50;;
14074;SDS011;12831;52.392;13.066;2023-07-31T07:02:46;3.60;;;1.75;;
14074;SDS011;12831;52.392;13.066;2023-07-31T07:05:16;7.28;;;2.53;;
14074;SDS011;12831;52.392;13.066;2023-07-31T07:07:43;5.57;;;1.60;;
14074;SDS011;12831;52.392;13.066;2023-07-31T07:10:09;4.00;;;1.50;;
14074;SDS011;12831;52.392;13.066;2023-07-31T07:12:35;5.32;;;2.28;;
14074;SDS011;12831;52.392;13.066;2023-07-31T07:15:01;7.90;;;2.97;;
14074;SDS011;12831;52.392;13.066;2023-07-31T07:17:28;6.88;;;3.03;;
14074;SDS011;12831;52.392;13.066;2023-07-31T07:19:58;6.53;;;2.47;;
14074;SDS011;12831;52.392;13.066;2023-07-31T07:22:25;6.10;;;2.35;;
14074;SDS011;12831;52.392;13.066;2023-07-31T07:27:36;7.10;;;2.85;;
14074;SDS011;12831;52.392;13.066;2023-07-31T07:30:02;7.03;;;2.35;;
14074;SDS011;12831;52.392;13.066;2023-07-31T07:32:30;3.75;;;1.88;;
14074;SDS011;12831;52.392;13.066;2023-07-31T07:34:56;4.80;;;1.85;;
14074;SDS011;12831;52.392;13.066;2023-07-31T07:37:22;5.75;;;2.45;;
14074;SDS011;12831;52.392;13.066;2023-07-31T07:39:49;5.25;;;2.25;;
14074;SDS011;12831;52.392;13.066;2023-07-31T07:42:14;7.03;;;3.55;;
14074;SDS011;12831;52.392;13.066;2023-07-31T07:44:40;3.13;;;1.75;;
14074;SDS011;12831;52.392;13.066;2023-07-31T07:47:06;5.78;;;1.38;;
14074;SDS011;12831;52.392;13.066;2023-07-31T07:49:34;3.75;;;1.52;;
14074;SDS011;12831;52.392;13.066;2023-07-31T07:52:01;3.15;;;2.13;;
14074;SDS011;12831;52.392;13.066;2023-07-31T07:54:28;4.18;;;2.10;;
14074;SDS011;12831;52.392;13.066;2023-07-31T07:56:54;3.55;;;1.85;;
14074;SDS011;12831;52.392;13.066;2023-07-31T07:59:20;4.28;;;2.00;;
14074;SDS011;12831;52.392;13.066;2023-07-31T08:01:46;3.15;;;1.58;;
14074;SDS011;12831;52.392;13.066;2023-07-31T08:04:12;4.70;;;1.77;;
14074;SDS011;12831;52.392;13.066;2023-07-31T08:06:38;4.53;;;2.05;;
14074;SDS011;12831;52.392;13.066;2023-07-31T08:09:05;4.10;;;2.03;;
14074;SDS011;12831;52.392;13.066;2023-07-31T08:11:33;3.80;;;2.28;;
14074;SDS011;12831;52.392;13.066;2023-07-31T08:14:00;3.22;;;1.52;;
14074;SDS011;12831;52.392;13.066;2023-07-31T08:16:26;4.93;;;1.70;;
14074;SDS011;12831;52.392;13.066;2023-07-31T08:18:52;3.97;;;1.70;;
14074;SDS011;12831;52.392;13.066;2023-07-31T08:21:18;4.15;;;1.77;;
14074;SDS011;12831;52.392;13.066;2023-07-31T08:23:53;3.85;;;1.48;;
14074;SDS011;12831;52.392;13.066;2023-07-31T08:26:19;4.53;;;1.85;;
14074;SDS011;12831;52.392;13.066;2023-07-31T08:28:46;3.58;;;1.70;;
14074;SDS011;12831;52.392;13.066;2023-07-31T08:31:13;3.03;;;1.60;;
14074;SDS011;12831;52.392;13.066;2023-07-31T08:33:39;4.05;;;1.52;;
14074;SDS011;12831;52.392;13.066;2023-07-31T08:36:06;2.42;;;1.52;;
14074;SDS011;12831;52.392;13.066;2023-07-31T08:38:32;3.20;;;1.17;;
14074;SDS011;12831;52.392;13.066;2023-07-31T08:40:58;10.20;;;1.60;;
14074;SDS011;12831;52.392;13.066;2023-07-31T08:43:25;1.80;;;1.00;;
14074;SDS011;12831;52.392;13.066;2023-07-31T08:45:54;3.28;;;0.77;;
14074;SDS011;12831;52.392;13.066;2023-07-31T08:48:21;1.95;;;1.10;;
14074;SDS011;12831;52.392;13.066;2023-07-31T08:50:48;3.83;;;0.98;;
14074;SDS011;12831;52.392;13.066;2023-07-31T08:53:14;1.90;;;0.90;;
14074;SDS011;12831;52.392;13.066;2023-07-31T08:55:40;1.05;;;0.57;;
14074;SDS011;12831;52.392;13.066;2023-07-31T08:58:09;1.48;;;0.60;;
14074;SDS011;12831;52.392;13.066;2023-07-31T09:00:36;1.00;;;0.50;;
14074;SDS011;12831;52.392;13.066;2023-07-31T09:03:03;0.85;;;0.43;;
14074;SDS011;12831;52.392;13.066;2023-07-31T09:05:30;1.50;;;0.60;;
14074;SDS011;12831;52.392;13.066;2023-07-31T09:07:57;1.13;;;0.50;;
14074;SDS011;12831;52.392;13.066;2023-07-31T09:10:24;0.85;;;0.60;;
14074;SDS011;12831;52.392;13.066;2023-07-31T09:12:53;1.77;;;0.60;;
14074;SDS011;12831;52.392;13.066;2023-07-31T09:15:19;1.15;;;0.40;;
14074;SDS011;12831;52.392;13.066;2023-07-31T09:18:02;1.55;;;0.68;;
14074;SDS011;12831;52.392;13.066;2023-07-31T09:20:29;1.50;;;0.55;;
14074;SDS011;12831;52.392;13.066;2023-07-31T09:22:55;1.85;;;0.47;;
14074;SDS011;12831;52.392;13.066;2023-07-31T09:25:25;1.65;;;0.98;;
14074;SDS011;12831;52.392;13.066;2023-07-31T09:27:57;2.05;;;0.88;;
14074;SDS011;12831;52.392;13.066;2023-07-31T09:30:23;4.45;;;1.75;;
14074;SDS011;12831;52.392;13.066;2023-07-31T09:32:50;3.30;;;1.08;;
14074;SDS011;12831;52.392;13.066;2023-07-31T09:35:30;3.30;;;1.42;;
14074;SDS011;12831;52.392;13.066;2023-07-31T09:37:57;2.63;;;1.17;;
14074;SDS011;12831;52.392;13.066;2023-07-31T09:40:25;3.05;;;1.10;;
14074;SDS011;12831;52.392;13.066;2023-07-31T09:43:13;3.50;;;1.58;;
14074;SDS011;12831;52.392;13.066;2023-07-31T09:45:40;4.80;;;1.58;;
14074;SDS011;12831;52.392;13.066;2023-07-31T09:48:15;3.15;;;1.50;;
14074;SDS011;12831;52.392;13.066;2023-07-31T09:50:47;4.20;;;2.15;;
14074;SDS011;12831;52.392;13.066;2023-07-31T09:53:14;4.35;;;1.83;;
14074;SDS011;12831;52.392;13.066;2023-07-31T09:55:52;3.47;;;2.03;;
14074;SDS011;12831;52.392;13.066;2023-07-31T09:58:19;2.83;;;1.58;;
14074;SDS011;12831;52.392;13.066;2023-07-31T10:00:46;5.03;;;2.05;;
14074;SDS011;12831;52.392;13.066;2023-07-31T10:03:12;5.93;;;2.13;;
14074;SDS011;12831;52.392;13.066;2023-07-31T10:05:49;4.57;;;2.08;;
14074;SDS011;12831;52.392;13.066;2023-07-31T10:08:17;5.05;;;2.50;;
14074;SDS011;12831;52.392;13.066;2023-07-31T10:10:44;4.97;;;2.03;;
14074;SDS011;12831;52.392;13.066;2023-07-31T10:13:11;5.60;;;2.50;;
14074;SDS011;12831;52.392;13.066;2023-07-31T10:15:37;4.70;;;2.13;;
14074;SDS011;12831;52.392;13.066;2023-07-31T10:18:07;5.38;;;2.30;;
14074;SDS011;12831;52.392;13.066;2023-07-31T10:23:00;5.65;;;2.15;;
14074;SDS011;12831;52.392;13.066;2023-07-31T10:25:27;4.65;;;2.05;;
14074;SDS011;12831;52.392;13.066;2023-07-31T10:27:53;5.40;;;2.50;;
14074;SDS011;12831;52.392;13.066;2023-07-31T10:30:25;4.13;;;1.80;;
14074;SDS011;12831;52.392;13.066;2023-07-31T10:32:52;3.70;;;1.80;;
14074;SDS011;12831;52.392;13.066;2023-07-31T10:35:19;6.80;;;2.15;;
14074;SDS011;12831;52.392;13.066;2023-07-31T10:37:47;7.30;;;2.10;;
14074;SDS011;12831;52.392;13.066;2023-07-31T10:40:19;4.65;;;2.00;;
14074;SDS011;12831;52.392;13.066;2023-07-31T10:45:14;5.20;;;1.98;;
14074;SDS011;12831;52.392;13.066;2023-07-31T10:47:50;4.50;;;1.90;;
14074;SDS011;12831;52.392;13.066;2023-07-31T10:50:24;3.17;;;1.73;;
14074;SDS011;12831;52.392;13.066;2023-07-31T10:52:51;3.75;;;2.00;;
14074;SDS011;12831;52.392;13.066;2023-07-31T10:58:09;5.63;;;2.20;;
14074;SDS011;12831;52.392;13.066;2023-07-31T11:00:39;6.53;;;2.67;;
14074;SDS011;12831;52.392;13.066;2023-07-31T11:05:40;4.32;;;2.00;;
14074;SDS011;12831;52.392;13.066;2023-07-31T11:08:12;4.38;;;2.28;;
14074;SDS011;12831;52.392;13.066;2023-07-31T11:13:05;5.10;;;1.95;;
14074;SDS011;12831;52.392;13.066;2023-07-31T11:15:32;5.35;;;1.85;;
14074;SDS011;12831;52.392;13.066;2023-07-31T11:18:00;6.82;;;2.33;;
14074;SDS011;12831;52.392;13.066;2023-07-31T11:20:26;3.25;;;1.90;;
14074;SDS011;12831;52.392;13.066;2023-07-31T11:22:53;7.38;;;2.10;;
14074;SDS011;12831;52.392;13.066;2023-07-31T11:25:26;3.95;;;2.42;;
14074;SDS011;12831;52.392;13.066;2023-07-31T11:27:54;7.00;;;2.50;;
14074;SDS011;12831;52.392;13.066;2023-07-31T11:30:22;7.20;;;1.65;;
14074;SDS011;12831;52.392;13.066;2023-07-31T11:32:48;4.68;;;2.45;;
14074;SDS011;12831;52.392;13.066;2023-07-31T11:35:15;3.40;;;1.80;;
14074;SDS011;12831;52.392;13.066;2023-07-31T11:37:41;4.95;;;1.63;;
14074;SDS011;12831;52.392;13.066;2023-07-31T11:40:08;3.55;;;1.90;;
14074;SDS011;12831;52.392;13.066;2023-07-31T11:42:35;5.05;;;2.20;;
14074;SDS011;12831;52.392;13.066;2023-07-31T11:45:07;6.90;;;2.35;;
14074;SDS011;12831;52.392;13.066;2023-07-31T11:47:35;4.75;;;2.30;;
14074;SDS011;12831;52.392;13.066;2023-07-31T11:50:03;5.50;;;2.15;;
14074;SDS011;12831;52.392;13.066;2023-07-31T11:52:29;4.00;;;1.73;;
14074;SDS011;12831;52.392;13.066;2023-07-31T11:55:12;5.25;;;2.20;;
14074;SDS011;12831;52.392;13.066;2023-07-31T11:57:39;3.10;;;1.88;;
14074;SDS011;12831;52.392;13.066;2023-07-31T12:00:06;4.97;;;2.05;;
14074;SDS011;12831;52.392;13.066;2023-07-31T12:02:37;4.13;;;2.67;;
14074;SDS011;12831;52.392;13.066;2023-07-31T12:05:06;3.92;;;2.08;;
14074;SDS011;12831;52.392;13.066;2023-07-31T12:07:42;4.20;;;1.77;;
14074;SDS011;12831;52.392;13.066;2023-07-31T12:10:08;4.30;;;2.00;;
14074;SDS011;12831;52.392;13.066;2023-07-31T12:12:34;5.40;;;1.92;;
14074;SDS011;12831;52.392;13.066;2023-07-31T12:15:01;5.13;;;1.85;;
14074;SDS011;12831;52.392;13.066;2023-07-31T12:17:27;4.88;;;2.30;;
14074;SDS011;12831;52.392;13.066;2023-07-31T12:19:53;8.88;;;2.28;;
14074;SDS011;12831;52.392;13.066;2023-07-31T12:22:19;7.45;;;2.00;;
14074;SDS011;12831;52.392;13.066;2023-07-31T12:24:59;5.45;;;2.85;;
14074;SDS011;12831;52.392;13.066;2023-07-31T12:27:32;4.82;;;2.30;;
14074;SDS011;12831;52.392;13.066;2023-07-31T12:29:58;7.07;;;1.83;;
14074;SDS011;12831;52.392;13.066;2023-07-31T12:32:25;3.60;;;1.73;;
14074;SDS011;12831;52.392;13.066;2023-07-31T12:34:54;5.93;;;1.63;;
14074;SDS011;12831;52.392;13.066;2023-07-31T12:37:21;4.05;;;1.30;;
14074;SDS011;12831;52.392;13.066;2023-07-31T12:39:47;5.63;;;1.70;;
14074;SDS011;12831;52.392;13.066;2023-07-31T12:42:14;3.58;;;1.48;;
14074;SDS011;12831;52.392;13.066;2023-07-31T12:44:43;3.13;;;1.38;;
14074;SDS011;12831;52.392;13.066;2023-07-31T12:47:13;2.70;;;1.45;;
14074;SDS011;12831;52.392;13.066;2023-07-31T12:52:06;2.17;;;1.25;;
14074;SDS011;12831;52.392;13.066;2023-07-31T12:54:47;3.40;;;1.60;;
14074;SDS011;12831;52.392;13.066;2023-07-31T12:57:14;6.10;;;2.10;;
14074;SDS011;12831;52.392;13.066;2023-07-31T12:59:40;20.33;;;2.50;;
14074;SDS011;12831;52.392;13.066;2023-07-31T13:02:06;4.55;;;1.60;;
14074;SDS011;12831;52.392;13.066;2023-07-31T13:04:32;3.60;;;1.67;;
14074;SDS011;12831;52.392;13.066;2023-07-31T13:06:58;4.43;;;2.17;;
14074;SDS011;12831;52.392;13.066;2023-07-31T13:09:26;4.38;;;1.85;;
14074;SDS011;12831;52.392;13.066;2023-07-31T13:11:52;4.13;;;1.35;;
14074;SDS011;12831;52.392;13.066;2023-07-31T13:14:19;6.43;;;1.70;;
14074;SDS011;12831;52.392;13.066;2023-07-31T13:16:45;8.43;;;2.15;;
14074;SDS011;12831;52.392;13.066;2023-07-31T13:19:11;5.07;;;2.33;;
14074;SDS011;12831;52.392;13.066;2023-07-31T13:21:37;5.78;;;2.05;;
14074;SDS011;12831;52.392;13.066;2023-07-31T13:24:09;4.07;;;2.20;;
14074;SDS011;12831;52.392;13.066;2023-07-31T13:26:35;3.95;;;2.10;;
14074;SDS011;12831;52.392;13.066;2023-07-31T13:29:03;4.45;;;1.90;;
14074;SDS011;12831;52.392;13.066;2023-07-31T13:31:29;7.18;;;2.47;;
14074;SDS011;12831;52.392;13.066;2023-07-31T13:33:55;4.07;;;2.20;;
14074;SDS011;12831;52.392;13.066;2023-07-31T13:36:21;4.57;;;1.92;;
14074;SDS011;12831;52.392;13.066;2023-07-31T13:38:51;3.78;;;2.00;;
14074;SDS011;12831;52.392;13.066;2023-07-31T13:41:17;4.07;;;1.63;;
14074;SDS011;12831;52.392;13.066;2023-07-31T13:43:44;4.70;;;2.30;;
14074;SDS011;12831;52.392;13.066;2023-07-31T13:46:12;7.45;;;2.05;;
14074;SDS011;12831;52.392;13.066;2023-07-31T13:48:40;7.43;;;2.22;;
14074;SDS011;12831;52.392;13.066;2023-07-31T13:51:09;8.23;;;2.58;;
14074;SDS011;12831;52.392;13.066;2023-07-31T13:53:36;7.75;;;1.92;;
14074;SDS011;12831;52.392;13.066;2023-07-31T13:56:05;7.43;;;2.00;;
14074;SDS011;12831;52.392;13.066;2023-07-31T13:58:32;5.18;;;2.60;;
14074;SDS011;12831;52.392;13.066;2023-07-31T14:00:59;3.30;;;2.03;;
14074;SDS011;12831;52.392;13.066;2023-07-31T14:03:26;3.58;;;1.73;;
14074;SDS011;12831;52.392;13.066;2023-07-31T14:05:53;4.15;;;1.80;;
14074;SDS011;12831;52.392;13.066;2023-07-31T14:08:21;12.13;;;2.50;;
14074;SDS011;12831;52.392;13.066;2023-07-31T14:10:51;4.40;;;1.98;;
14074;SDS011;12831;52.392;13.066;2023-07-31T14:13:19;2.55;;;1.60;;
14074;SDS011;12831;52.392;13.066;2023-07-31T14:15:46;7.65;;;2.47;;
14074;SDS011;12831;52.392;13.066;2023-07-31T14:18:14;3.70;;;1.70;;
14074;SDS011;12831;52.392;13.066;2023-07-31T14:20:44;4.50;;;1.75;;
14074;SDS011;12831;52.392;13.066;2023-07-31T14:26:27;4.60;;;2.20;;
14074;SDS011;12831;52.392;13.066;2023-07-31T14:28:53;4.10;;;1.70;;
14074;SDS011;12831;52.392;13.066;2023-07-31T14:31:19;7.20;;;2.10;;
14074;SDS011;12831;52.392;13.066;2023-07-31T14:33:47;5.95;;;2.17;;
14074;SDS011;12831;52.392;13.066;2023-07-31T14:36:13;3.85;;;1.92;;
14074;SDS011;12831;52.392;13.066;2023-07-31T14:38:39;8.25;;;1.80;;
14074;SDS011;12831;52.392;13.066;2023-07-31T14:41:05;6.80;;;2.85;;
14074;SDS011;12831;52.392;13.066;2023-07-31T14:43:33;5.25;;;2.28;;
14074;SDS011;12831;52.392;13.066;2023-07-31T14:45:59;5.30;;;2.13;;
14074;SDS011;12831;52.392;13.066;2023-07-31T14:48:26;3.63;;;2.13;;
14074;SDS011;12831;52.392;13.066;2023-07-31T14:50:53;4.70;;;2.95;;
14074;SDS011;12831;52.392;13.066;2023-07-31T14:53:38;4.07;;;2.63;;
14074;SDS011;12831;52.392;13.066;2023-07-31T14:56:05;4.38;;;1.70;;
14074;SDS011;12831;52.392;13.066;2023-07-31T14:58:31;5.10;;;2.33;;
14074;SDS011;12831;52.392;13.066;2023-07-31T15:00:59;5.25;;;2.45;;
14074;SDS011;12831;52.392;13.066;2023-07-31T15:03:25;4.93;;;2.00;;